Time;durP1;ratioP1;P1;durP2;ratioP2;P2;SDS_P1;SDS_P2;PMS_P1;PMS_P2;Temp;Humidity;BMP_temperature;BMP_pressure;BME280_temperature;BME280_humidity;BME280_pressure;Samples;Min_cycle;Max_cycle;Signal;HPM_P1;HPM_P2
2021/09/20 04:00:18;;;;;;;6.53;4.43;;;7.80;96.30;;;;;;5997295;23;21405;-78
2021/09/20 04:02:43;;;;;;;4.07;3.67;;;7.80;96.30;;;;;;4960828;28;20889;-77
2021/09/20 04:05:09;;;;;;;5.20;4.37;;;7.80;96.30;;;;;;4957191;28;20746;-77
2021/09/20 04:07:39;;;;;;;11.53;4.80;;;7.70;96.30;;;;;;4955511;28;20190;-77
2021/09/20 04:10:06;;;;;;;5.70;4.47;;;7.70;96.30;;;;;;4955442;28;20179;-77
2021/09/20 04:12:31;;;;;;;6.33;4.83;;;7.70;96.30;;;;;;4954851;28;20430;-77
2021/09/20 04:14:57;;;;;;;4.80;4.23;;;7.80;96.30;;;;;;4956073;28;20465;-79
2021/09/20 04:17:22;;;;;;;5.17;4.73;;;7.80;96.30;;;;;;4955863;28;20223;-78
2021/09/20 04:19:48;;;;;;;5.37;4.87;;;7.80;96.30;;;;;;4953740;28;20206;-79
2021/09/20 04:22:13;;;;;;;5.60;5.10;;;7.70;96.30;;;;;;4954558;28;20206;-79
2021/09/20 04:24:39;;;;;;;5.07;4.57;;;7.70;96.30;;;;;;4955760;28;20179;-78
2021/09/20 04:27:04;;;;;;;9.93;4.50;;;7.70;96.30;;;;;;4960112;28;20641;-78
2021/09/20 04:29:30;;;;;;;6.23;4.53;;;7.70;96.30;;;;;;4962922;28;20166;-78
2021/09/20 04:31:56;;;;;;;4.60;4.20;;;7.70;96.30;;;;;;4967292;28;20257;-77
2021/09/20 04:34:23;;;;;;;6.80;4.37;;;7.80;96.30;;;;;;4973109;28;20218;-77
2021/09/20 04:36:49;;;;;;;12.40;4.20;;;7.80;96.30;;;;;;4972948;28;20186;-77
2021/09/20 04:39:14;;;;;;;8.23;6.50;;;7.80;96.30;;;;;;4974232;28;20448;-77
2021/09/20 04:41:41;;;;;;;14.93;5.00;;;7.80;96.30;;;;;;4973287;28;20225;-77
2021/09/20 04:44:07;;;;;;;12.87;4.87;;;7.80;96.30;;;;;;4975370;28;20442;-76
2021/09/20 04:46:32;;;;;;;6.73;4.53;;;7.80;96.30;;;;;;4955659;28;20422;-77
2021/09/20 04:48:58;;;;;;;5.90;4.97;;;7.70;96.30;;;;;;4956072;28;20171;-75
2021/09/20 04:51:23;;;;;;;10.23;7.10;;;7.70;96.30;;;;;;4972671;28;20677;-76
2021/09/20 04:53:49;;;;;;;12.20;8.70;;;7.70;96.30;;;;;;4972717;28;20212;-76
2021/09/20 04:56:16;;;;;;;12.00;8.73;;;7.70;96.30;;;;;;4962570;28;20658;-77
2021/09/20 04:58:41;;;;;;;10.67;7.50;;;7.70;96.30;;;;;;4955802;28;20171;-77
2021/09/20 05:01:07;;;;;;;9.40;7.30;;;7.70;96.30;;;;;;4963213;28;21121;-78
2021/09/20 05:03:32;;;;;;;10.33;6.93;;;7.70;96.30;;;;;;4966732;28;20565;-78
2021/09/20 05:05:58;;;;;;;9.93;7.47;;;7.70;96.30;;;;;;4971789;28;20178;-78
2021/09/20 05:08:23;;;;;;;7.30;6.60;;;7.70;96.30;;;;;;4970186;28;20242;-78
2021/09/20 05:10:49;;;;;;;10.10;7.87;;;7.70;96.30;;;;;;4974218;28;20234;-78
2021/09/20 05:13:14;;;;;;;6.83;6.13;;;7.80;96.30;;;;;;4966764;28;20190;-78
2021/09/20 05:15:40;;;;;;;16.43;12.80;;;7.80;96.30;;;;;;4968381;28;20186;-78
2021/09/20 05:18:05;;;;;;;9.73;8.83;;;7.80;96.30;;;;;;4955800;28;20182;-78
2021/09/20 05:20:31;;;;;;;14.27;11.70;;;7.80;96.30;;;;;;4967892;28;20199;-78
2021/09/20 05:22:57;;;;;;;12.47;9.00;;;7.80;96.30;;;;;;4974416;28;20198;-78
2021/09/20 05:25:22;;;;;;;9.40;8.50;;;7.80;96.30;;;;;;4978071;28;20183;-79
2021/09/20 05:27:49;;;;;;;10.13;9.10;;;7.80;96.30;;;;;;4971149;28;20175;-78
2021/09/20 05:30:15;;;;;;;7.57;6.67;;;7.90;96.30;;;;;;4978863;28;20178;-76
2021/09/20 05:32:40;;;;;;;9.43;7.40;;;7.90;96.30;;;;;;4977134;28;20594;-79
2021/09/20 05:35:07;;;;;;;9.97;6.67;;;8.00;96.30;;;;;;4969281;28;20424;-78
2021/09/20 05:37:33;;;;;;;6.67;5.80;;;8.00;96.30;;;;;;4969849;28;20183;-79
2021/09/20 05:39:59;;;;;;;6.10;5.50;;;8.00;96.30;;;;;;4958907;28;20444;-79
2021/09/20 05:42:24;;;;;;;8.17;5.90;;;8.00;96.30;;;;;;4964189;28;20458;-79
2021/09/20 05:44:50;;;;;;;15.30;11.50;;;8.00;96.30;;;;;;4972045;28;20241;-79
2021/09/20 05:47:15;;;;;;;8.43;6.20;;;8.00;96.30;;;;;;4972649;28;20271;-78
2021/09/20 05:49:41;;;;;;;9.60;6.53;;;8.10;96.30;;;;;;4975804;28;20182;-79
2021/09/20 05:52:06;;;;;;;13.03;5.20;;;8.10;96.30;;;;;;4971533;28;20278;-78
2021/09/20 05:54:32;;;;;;;6.93;5.17;;;8.10;96.30;;;;;;4957523;29;20638;-79
2021/09/20 05:56:58;;;;;;;6.27;4.80;;;8.10;96.30;;;;;;4959043;28;20183;-79
2021/09/20 05:59:23;;;;;;;6.00;5.40;;;8.10;96.30;;;;;;4963138;28;20187;-79
2021/09/20 06:01:49;;;;;;;7.67;5.47;;;8.10;96.30;;;;;;4977296;28;20210;-79
2021/09/20 06:04:14;;;;;;;12.07;6.20;;;8.10;96.30;;;;;;4977975;28;20179;-78
2021/09/20 06:06:40;;;;;;;8.13;5.80;;;8.10;96.30;;;;;;4978737;28;20186;-78
2021/09/20 06:09:05;;;;;;;7.57;5.80;;;8.20;96.30;;;;;;4977022;28;20266;-79
2021/09/20 06:11:31;;;;;;;7.60;6.80;;;8.20;96.30;;;;;;4974674;28;20199;-79
2021/09/20 06:13:57;;;;;;;11.57;6.30;;;8.20;96.30;;;;;;4971893;28;20197;-79
2021/09/20 06:16:24;;;;;;;6.30;5.70;;;8.30;96.30;;;;;;4977220;28;20174;-79
2021/09/20 06:18:49;;;;;;;8.80;5.83;;;8.30;96.30;;;;;;4978305;28;20414;-79
2021/09/20 06:21:15;;;;;;;8.77;6.37;;;8.40;96.30;;;;;;4977928;28;20449;-79
2021/09/20 06:23:41;;;;;;;12.70;5.80;;;8.50;96.30;;;;;;4978576;28;20285;-78
2021/09/20 06:26:07;;;;;;;10.87;5.80;;;8.50;96.30;;;;;;4978428;28;20179;-78
2021/09/20 06:28:32;;;;;;;14.70;6.10;;;8.50;96.30;;;;;;4978439;28;20171;-78
2021/09/20 06:31:02;;;;;;;7.00;5.67;;;8.60;96.30;;;;;;4977857;28;20441;-79
2021/09/20 06:33:30;;;;;;;7.67;5.43;;;8.70;96.30;;;;;;4978347;28;20177;-79
2021/09/20 06:35:57;;;;;;;7.70;5.50;;;8.70;96.30;;;;;;4981076;28;20779;-80
2021/09/20 06:38:22;;;;;;;10.37;5.50;;;8.70;96.30;;;;;;4977610;28;20405;-78
2021/09/20 06:40:48;;;;;;;6.57;4.20;;;8.70;96.30;;;;;;4976708;28;20479;-79
2021/09/20 06:43:13;;;;;;;8.60;4.80;;;8.70;96.30;;;;;;4975779;28;20728;-79
2021/09/20 06:45:39;;;;;;;6.90;4.80;;;8.80;96.30;;;;;;4975935;28;20181;-79
2021/09/20 06:48:05;;;;;;;5.47;4.60;;;8.80;96.30;;;;;;4977444;28;20185;-80
2021/09/20 06:50:30;;;;;;;10.37;5.50;;;8.80;96.30;;;;;;4978008;28;20273;-78
2021/09/20 06:52:56;;;;;;;4.80;4.40;;;8.80;96.30;;;;;;4975679;28;20178;-79
2021/09/20 06:55:21;;;;;;;5.33;4.83;;;8.90;96.30;;;;;;4976753;28;20538;-79
2021/09/20 06:57:47;;;;;;;12.13;5.77;;;9.00;96.30;;;;;;4977446;28;20175;-79
2021/09/20 07:00:14;;;;;;;11.13;5.60;;;9.00;96.30;;;;;;4975828;28;20186;-79
2021/09/20 07:02:39;;;;;;;6.47;5.23;;;9.20;96.30;;;;;;4974401;28;20437;-79
2021/09/20 07:05:07;;;;;;;11.57;6.07;;;9.30;96.30;;;;;;4976773;28;20421;-80
2021/09/20 07:07:32;;;;;;;6.90;6.20;;;9.30;96.30;;;;;;4977589;28;20166;-78
2021/09/20 07:09:58;;;;;;;5.90;5.40;;;9.20;96.30;;;;;;4976019;28;20422;-78
2021/09/20 07:12:23;;;;;;;6.57;5.50;;;9.30;96.30;;;;;;4973934;28;20674;-79
2021/09/20 07:14:49;;;;;;;10.17;6.37;;;9.30;96.30;;;;;;4976723;28;20187;-80
2021/09/20 07:17:14;;;;;;;10.77;6.17;;;9.40;96.30;;;;;;4977553;28;20170;-78
2021/09/20 07:19:40;;;;;;;9.03;6.20;;;9.50;96.30;;;;;;4977836;28;20559;-80
2021/09/20 07:22:05;;;;;;;5.83;5.20;;;9.40;96.30;;;;;;4973910;28;20257;-79
2021/09/20 07:24:30;;;;;;;11.60;6.23;;;9.50;96.30;;;;;;4974977;28;20185;-79
2021/09/20 07:26:56;;;;;;;7.03;6.10;;;9.50;96.30;;;;;;4972429;28;20178;-79
2021/09/20 07:29:22;;;;;;;12.37;5.20;;;9.60;96.30;;;;;;4977288;28;20599;-80
2021/09/20 07:31:47;;;;;;;5.53;5.03;;;9.70;96.30;;;;;;4977579;28;20226;-79
2021/09/20 07:34:13;;;;;;;6.70;5.23;;;9.60;96.30;;;;;;4977555;28;20189;-78
2021/09/20 07:36:38;;;;;;;5.93;5.33;;;9.50;96.30;;;;;;4978941;28;20186;-78
2021/09/20 07:39:05;;;;;;;5.53;5.00;;;9.50;96.30;;;;;;4983518;28;20205;-80
2021/09/20 07:41:31;;;;;;;7.63;5.90;;;9.60;96.30;;;;;;4975949;28;20224;-79
2021/09/20 07:43:56;;;;;;;5.90;5.40;;;9.70;96.30;;;;;;4977219;28;20509;-80
2021/09/20 07:46:22;;;;;;;7.10;5.53;;;9.80;96.30;;;;;;4974632;28;20182;-80
2021/09/20 07:48:52;;;;;;;7.53;6.17;;;9.90;96.30;;;;;;4975163;28;20182;-80
2021/09/20 07:51:18;;;;;;;7.97;5.97;;;9.90;96.30;;;;;;4974636;28;20529;-80
2021/09/20 07:53:44;;;;;;;10.27;6.50;;;9.90;96.30;;;;;;4976713;28;20874;-80
2021/09/20 07:56:10;;;;;;;7.60;6.47;;;10.10;96.30;;;;;;4976652;28;20955;-79
2021/09/20 07:58:36;;;;;;;6.80;6.17;;;10.30;96.30;;;;;;4975628;28;20181;-79
2021/09/20 08:01:01;;;;;;;7.20;5.90;;;10.40;96.30;;;;;;4974615;28;20462;-79
2021/09/20 08:03:27;;;;;;;6.30;5.70;;;10.60;96.30;;;;;;4975989;28;20203;-81
2021/09/20 08:05:53;;;;;;;6.00;5.50;;;10.80;96.30;;;;;;4975528;28;20171;-79
2021/09/20 08:08:19;;;;;;;8.17;5.73;;;10.70;96.30;;;;;;4977244;28;20198;-81
2021/09/20 08:10:45;;;;;;;7.53;6.83;;;10.70;96.30;;;;;;4977589;28;20985;-80
2021/09/20 08:13:10;;;;;;;10.90;6.63;;;10.90;96.30;;;;;;4976116;28;20508;-80
2021/09/20 08:15:37;;;;;;;11.90;7.63;;;11.00;96.30;;;;;;4976046;28;20638;-80
2021/09/20 08:18:04;;;;;;;8.13;7.37;;;11.10;96.30;;;;;;4976863;28;20186;-79
2021/09/20 08:20:30;;;;;;;8.33;7.03;;;11.30;96.30;;;;;;4978078;28;20446;-80
2021/09/20 08:22:55;;;;;;;10.53;7.67;;;11.30;96.30;;;;;;4978193;28;20453;-80
2021/09/20 08:25:24;;;;;;;7.70;6.50;;;11.30;96.30;;;;;;4978417;28;20508;-80
2021/09/20 08:27:50;;;;;;;7.13;6.40;;;11.20;96.30;;;;;;4958763;28;20302;-81
2021/09/20 08:30:17;;;;;;;15.10;8.60;;;11.20;96.30;;;;;;4959404;28;21005;-80
2021/09/20 08:32:43;;;;;;;6.97;6.03;;;11.20;96.30;;;;;;4958181;28;20410;-80
2021/09/20 08:35:09;;;;;;;10.70;6.90;;;11.30;96.30;;;;;;4958673;28;20449;-80
2021/09/20 08:37:35;;;;;;;7.53;6.03;;;11.60;96.30;;;;;;4972090;28;20182;-79
2021/09/20 08:40:00;;;;;;;6.60;6.00;;;11.70;96.30;;;;;;4957586;28;20779;-79
2021/09/20 08:42:26;;;;;;;6.90;6.20;;;11.60;96.30;;;;;;4966826;28;20213;-80
2021/09/20 08:44:52;;;;;;;15.20;5.77;;;11.60;96.30;;;;;;4975323;28;20175;-80
2021/09/20 08:47:18;;;;;;;8.20;6.37;;;11.80;96.30;;;;;;4974934;28;20437;-79
2021/09/20 08:49:44;;;;;;;7.53;6.73;;;11.90;96.30;;;;;;4976581;28;20182;-78
2021/09/20 08:52:10;;;;;;;13.43;6.67;;;11.80;96.30;;;;;;4974501;28;20580;-79
2021/09/20 08:54:36;;;;;;;8.53;6.30;;;11.80;96.30;;;;;;4975844;28;20174;-79
2021/09/20 08:57:02;;;;;;;18.73;5.80;;;11.80;96.30;;;;;;4976041;28;20409;-79
2021/09/20 08:59:27;;;;;;;9.93;6.47;;;11.80;96.30;;;;;;4975803;28;20175;-78
2021/09/20 09:01:55;;;;;;;17.00;5.90;;;11.90;96.30;;;;;;4975391;28;20249;-79
2021/09/20 09:04:28;;;;;;;6.27;5.63;;;11.40;96.30;;;;;;4976059;28;20542;-78
2021/09/20 09:07:06;;;;;;;6.57;5.97;;;11.80;96.30;;;;;;4975204;28;20508;-79
2021/09/20 09:09:40;;;;;;;6.10;5.50;;;12.10;96.30;;;;;;4976873;28;20429;-79
2021/09/20 09:12:21;;;;;;;6.37;5.70;;;11.70;96.30;;;;;;4975852;28;20438;-79
2021/09/20 09:14:54;;;;;;;7.07;6.00;;;11.70;96.30;;;;;;4976554;28;20849;-79
2021/09/20 09:17:29;;;;;;;6.10;5.50;;;11.90;96.30;;;;;;4977165;28;20780;-80
2021/09/20 09:20:01;;;;;;;8.30;5.57;;;12.30;96.30;;;;;;4976613;28;20467;-79
2021/09/20 09:22:56;;;;;;;7.47;5.07;;;12.30;96.30;;;;;;4975595;28;20472;-78
2021/09/20 09:25:22;;;;;;;7.03;6.33;;;12.30;96.30;;;;;;4975010;28;20424;-79
2021/09/20 09:27:50;;;;;;;7.03;5.40;;;12.30;96.30;;;;;;4976064;28;20424;-79
2021/09/20 09:30:20;;;;;;;6.37;5.83;;;12.40;96.30;;;;;;4977786;28;20422;-80
2021/09/20 09:32:48;;;;;;;5.53;5.03;;;12.50;96.30;;;;;;4986782;28;20429;-80
2021/09/20 09:35:16;;;;;;;5.30;4.83;;;12.40;96.30;;;;;;4983931;28;20418;-79
2021/09/20 09:37:45;;;;;;;6.20;5.10;;;12.60;96.30;;;;;;4976364;28;20450;-79
2021/09/20 09:40:13;;;;;;;5.87;5.30;;;12.80;96.30;;;;;;4975883;28;20435;-80
2021/09/20 09:42:40;;;;;;;5.70;5.20;;;12.80;96.30;;;;;;4974711;28;20465;-79
2021/09/20 09:45:18;;;;;;;6.90;5.40;;;12.80;96.30;;;;;;4979380;28;20406;-79
2021/09/20 09:47:44;;;;;;;8.07;4.77;;;13.00;96.30;;;;;;4987489;28;20841;-80
2021/09/20 09:50:23;;;;;;;5.13;4.30;;;13.10;96.30;;;;;;4979240;28;20434;-79
2021/09/20 09:52:52;;;;;;;4.77;4.37;;;13.10;96.30;;;;;;4971888;28;20508;-80
2021/09/20 09:55:19;;;;;;;6.47;3.80;;;12.70;96.30;;;;;;4972808;28;20414;-80
2021/09/20 09:57:44;;;;;;;5.13;3.23;;;12.40;96.30;;;;;;4972993;28;20417;-79
2021/09/20 10:00:16;;;;;;;4.20;2.80;;;12.40;96.30;;;;;;4972827;28;20414;-80
2021/09/20 10:02:46;;;;;;;4.70;3.10;;;12.50;96.30;;;;;;4972244;28;20215;-80
2021/09/20 10:05:14;;;;;;;3.83;3.47;;;12.40;96.30;;;;;;4972509;28;20406;-79
2021/09/20 10:07:45;;;;;;;5.43;2.83;;;12.40;96.30;;;;;;4972755;28;20418;-80
2021/09/20 10:10:14;;;;;;;2.73;2.53;;;12.50;96.30;;;;;;4974023;28;20409;-80
2021/09/20 10:12:41;;;;;;;2.87;2.60;;;12.40;96.30;;;;;;4975665;28;20468;-79
2021/09/20 10:15:10;;;;;;;5.10;2.50;;;12.20;96.30;;;;;;4976614;28;20414;-80
2021/09/20 10:17:35;;;;;;;3.33;2.43;;;12.20;96.30;;;;;;4976063;28;20445;-80
2021/09/20 10:20:02;;;;;;;2.20;2.00;;;12.10;96.30;;;;;;4976587;28;20775;-80
2021/09/20 10:22:28;;;;;;;2.83;2.53;;;12.20;96.30;;;;;;4976488;28;20201;-79
2021/09/20 10:24:58;;;;;;;3.37;3.07;;;12.30;96.30;;;;;;4977414;28;20774;-80
2021/09/20 10:27:25;;;;;;;3.20;2.77;;;12.20;96.30;;;;;;4960957;28;20262;-80
2021/09/20 10:30:09;;;;;;;2.90;2.70;;;12.30;96.30;;;;;;4957069;28;20422;-80
2021/09/20 10:32:36;;;;;;;2.57;2.13;;;12.10;96.30;;;;;;5016188;23;20512;-78
2021/09/20 10:35:40;;;;;;;7.20;2.07;;;12.20;96.30;;;;;;4994918;28;20404;-80
2021/09/20 10:38:20;;;;;;;5.00;2.80;;;12.30;96.30;;;;;;4993703;28;20470;-80
2021/09/20 10:55:12;;;;;;;2.80;2.03;;;12.80;96.30;;;;;;4993317;28;20452;-81
2021/09/20 10:57:37;;;;;;;2.27;1.87;;;12.50;96.30;;;;;;4993296;28;20413;-79
2021/09/20 11:00:22;;;;;;;2.80;2.33;;;12.40;96.30;;;;;;4994423;28;20412;-80
2021/09/20 11:02:48;;;;;;;2.20;1.90;;;12.50;96.30;;;;;;4974316;28;20209;-80
2021/09/20 11:05:14;;;;;;;3.20;2.20;;;12.30;96.30;;;;;;4970693;28;20415;-80
2021/09/20 11:07:50;;;;;;;3.93;2.13;;;12.30;96.30;;;;;;4972199;28;20277;-79
2021/09/20 11:10:28;;;;;;;3.00;2.17;;;12.50;96.30;;;;;;4972153;28;21010;-79
2021/09/20 11:13:03;;;;;;;3.27;2.17;;;12.70;96.30;;;;;;4956114;28;20935;-80
2021/09/20 11:15:40;;;;;;;3.83;2.10;;;13.00;96.30;;;;;;4955700;28;20453;-79
2021/09/20 11:18:07;;;;;;;3.40;2.00;;;13.20;96.00;;;;;;4955784;28;20405;-79
2021/09/20 11:20:39;;;;;;;4.17;1.93;;;13.10;95.00;;;;;;4955318;28;20439;-79
2021/09/20 11:23:18;;;;;;;2.10;1.90;;;13.00;96.30;;;;;;4953807;28;20898;-78
2021/09/20 11:26:15;;;;;;;3.10;2.30;;;12.80;94.10;;;;;;4959184;28;20426;-79
2021/09/20 11:28:51;;;;;;;6.70;2.77;;;12.90;96.10;;;;;;4972250;28;20949;-79
2021/09/20 11:31:16;;;;;;;4.77;1.90;;;12.90;95.20;;;;;;4974110;28;20568;-79
2021/09/20 11:33:47;;;;;;;4.47;2.60;;;12.80;94.80;;;;;;4974709;28;20496;-80
2021/09/20 11:36:18;;;;;;;2.90;2.60;;;13.00;93.90;;;;;;4973247;28;20642;-79
2021/09/20 11:38:43;;;;;;;2.13;2.03;;;13.20;92.00;;;;;;4970491;28;20423;-79
2021/09/20 11:41:20;;;;;;;6.23;2.40;;;13.30;91.70;;;;;;4953458;28;20442;-80
2021/09/20 11:43:46;;;;;;;2.73;2.40;;;13.40;92.60;;;;;;4954908;28;20191;-80
2021/09/20 11:46:17;;;;;;;3.50;2.40;;;13.60;96.30;;;;;;4955236;28;20415;-80
2021/09/20 11:48:43;;;;;;;3.80;1.93;;;13.90;96.30;;;;;;4958135;28;20646;-79
2021/09/20 11:51:08;;;;;;;2.73;2.23;;;14.10;94.50;;;;;;4962492;28;20446;-80
2021/09/20 11:53:34;;;;;;;3.60;1.90;;;14.10;95.10;;;;;;4974559;28;20184;-80
2021/09/20 11:55:59;;;;;;;2.77;2.43;;;13.90;92.10;;;;;;4974523;28;20182;-80
2021/09/20 11:58:25;;;;;;;5.37;3.07;;;13.70;92.20;;;;;;4974233;28;20170;-80
2021/09/20 12:00:50;;;;;;;2.97;2.40;;;13.50;92.90;;;;;;4974231;28;20205;-80
2021/09/20 12:03:22;;;;;;;2.40;2.20;;;13.70;94.70;;;;;;4973743;28;20237;-80
2021/09/20 12:05:48;;;;;;;2.77;2.47;;;13.40;90.40;;;;;;4974168;28;20891;-80
2021/09/20 12:08:19;;;;;;;2.47;2.13;;;13.60;94.30;;;;;;4973972;28;20761;-80
2021/09/20 12:10:54;;;;;;;4.10;2.70;;;13.70;94.80;;;;;;4974262;28;20429;-80
2021/09/20 12:13:23;;;;;;;8.07;2.50;;;13.70;96.30;;;;;;4973116;28;20425;-79
2021/09/20 12:15:51;;;;;;;2.20;1.93;;;13.80;96.30;;;;;;4973718;28;20437;-80
2021/09/20 12:18:20;;;;;;;4.07;2.20;;;13.90;94.30;;;;;;4973874;28;21013;-80
2021/09/20 12:20:48;;;;;;;4.27;2.90;;;14.00;93.20;;;;;;4973781;28;20432;-80
2021/09/20 12:23:20;;;;;;;4.80;2.80;;;13.90;92.90;;;;;;4972335;28;20599;-80
2021/09/20 12:25:51;;;;;;;3.00;2.07;;;13.70;89.30;;;;;;4973188;28;20422;-80
2021/09/20 12:28:33;;;;;;;8.03;3.07;;;13.70;91.70;;;;;;4963578;28;20541;-80
2021/09/20 12:31:06;;;;;;;3.40;2.60;;;13.90;95.20;;;;;;4957085;28;20434;-79
2021/09/20 12:33:53;;;;;;;3.67;2.47;;;13.90;94.70;;;;;;4962974;28;20422;-80
2021/09/20 12:36:24;;;;;;;2.90;2.70;;;13.90;92.50;;;;;;4954126;28;20425;-80
2021/09/20 12:39:00;;;;;;;4.20;2.87;;;14.10;96.30;;;;;;4954291;28;20918;-80
2021/09/20 12:41:32;;;;;;;8.93;2.90;;;14.20;96.30;;;;;;4961797;28;20434;-80
2021/09/20 12:43:57;;;;;;;5.43;3.20;;;14.30;96.30;;;;;;4965501;28;20425;-77
2021/09/20 12:46:23;;;;;;;3.07;2.77;;;14.30;96.30;;;;;;4978276;28;20413;-78
2021/09/20 12:48:54;;;;;;;3.77;2.47;;;14.40;93.20;;;;;;4978565;28;20174;-78
2021/09/20 12:51:21;;;;;;;3.77;2.70;;;14.30;96.30;;;;;;4976120;28;20221;-76
2021/09/20 12:53:53;;;;;;;3.33;2.80;;;14.30;91.40;;;;;;4977604;28;20442;-78
2021/09/20 12:56:31;;;;;;;2.97;2.70;;;14.30;94.30;;;;;;4978010;28;20433;-76
2021/09/20 12:59:22;;;;;;;3.43;2.60;;;14.30;91.00;;;;;;4977856;28;20409;-78
2021/09/20 13:01:56;;;;;;;4.03;2.60;;;13.70;93.80;;;;;;4957773;28;20833;-77
2021/09/20 13:04:36;;;;;;;3.67;2.77;;;13.60;94.90;;;;;;4958320;28;20410;-77
2021/09/20 13:07:04;;;;;;;4.43;2.87;;;13.50;93.10;;;;;;4972753;28;20481;-78
2021/09/20 13:09:30;;;;;;;7.83;2.83;;;13.50;92.40;;;;;;4976745;28;20921;-78
2021/09/20 13:12:08;;;;;;;3.37;2.83;;;13.00;92.30;;;;;;4989857;28;20437;-79
2021/09/20 13:14:55;;;;;;;4.40;2.87;;;12.80;92.60;;;;;;4996835;28;20241;-81
2021/09/20 13:17:33;;;;;;;2.80;2.57;;;12.90;92.70;;;;;;4987154;28;20472;-77
2021/09/20 13:20:27;;;;;;;6.00;3.10;;;12.90;93.00;;;;;;4977069;28;20413;-76
2021/09/20 13:23:10;;;;;;;4.17;3.40;;;13.10;95.90;;;;;;4976977;28;20453;-77
2021/09/20 13:25:37;;;;;;;4.17;2.73;;;13.10;96.30;;;;;;4975872;28;20456;-79
2021/09/20 13:28:11;;;;;;;2.77;2.53;;;12.80;96.30;;;;;;4976821;28;20409;-77
2021/09/20 13:30:52;;;;;;;4.40;2.80;;;12.80;96.30;;;;;;4977458;28;20435;-77
2021/09/20 13:33:20;;;;;;;3.13;2.80;;;12.70;95.30;;;;;;4976655;28;20398;-77
2021/09/20 13:35:48;;;;;;;3.17;2.87;;;12.70;96.30;;;;;;4976553;28;20421;-77
2021/09/20 13:38:17;;;;;;;3.17;2.87;;;12.60;96.30;;;;;;4975107;28;20433;-76
2021/09/20 13:40:43;;;;;;;6.50;2.90;;;12.60;96.30;;;;;;4975261;28;20437;-77
2021/09/20 13:43:09;;;;;;;3.33;3.03;;;12.50;96.30;;;;;;4974647;28;21028;-78
2021/09/20 13:45:35;;;;;;;4.40;3.20;;;12.50;96.30;;;;;;4978845;28;20170;-78
2021/09/20 13:48:05;;;;;;;3.33;3.03;;;12.70;96.30;;;;;;4978886;28;20174;-77
2021/09/20 13:50:31;;;;;;;3.53;3.13;;;12.60;96.30;;;;;;4976404;28;20440;-77
2021/09/20 13:52:58;;;;;;;6.37;3.20;;;12.60;96.30;;;;;;4971077;28;20433;-79
2021/09/20 13:55:25;;;;;;;3.40;2.87;;;12.60;96.30;;;;;;4978058;28;20178;-77
2021/09/20 13:57:51;;;;;;;3.33;3.03;;;12.60;96.30;;;;;;4967686;28;20423;-77
2021/09/20 14:00:17;;;;;;;5.93;3.70;;;12.50;96.30;;;;;;4978048;28;20420;-76
2021/09/20 14:02:42;;;;;;;4.93;2.90;;;12.50;96.30;;;;;;4976585;28;20209;-77
2021/09/20 14:05:10;;;;;;;4.53;3.40;;;12.60;96.30;;;;;;4977774;28;20560;-76
2021/09/20 14:07:36;;;;;;;3.73;2.80;;;12.70;96.30;;;;;;4977855;28;20170;-80
2021/09/20 14:10:05;;;;;;;4.23;3.03;;;12.70;96.30;;;;;;4977652;28;20417;-77
2021/09/20 14:12:30;;;;;;;3.57;3.27;;;12.70;96.30;;;;;;4977186;28;20429;-78
2021/09/20 14:14:56;;;;;;;8.33;3.20;;;12.70;96.30;;;;;;4979104;28;20414;-79
2021/09/20 14:17:21;;;;;;;6.43;3.13;;;12.70;96.30;;;;;;4979764;28;20181;-77
2021/09/20 14:19:50;;;;;;;5.80;3.53;;;12.70;96.30;;;;;;4979601;28;20186;-78
2021/09/20 14:22:16;;;;;;;8.10;3.53;;;12.80;96.30;;;;;;4977863;28;20205;-76
2021/09/20 14:24:41;;;;;;;6.73;3.90;;;12.90;96.30;;;;;;4978770;28;20437;-76
2021/09/20 14:27:08;;;;;;;3.37;3.07;;;12.70;96.30;;;;;;4970696;28;20415;-77
2021/09/20 14:29:33;;;;;;;5.50;3.20;;;12.70;96.30;;;;;;4972464;28;20211;-78
2021/09/20 14:32:00;;;;;;;4.20;3.47;;;12.80;96.30;;;;;;4981011;28;20430;-78
2021/09/20 14:34:26;;;;;;;7.47;4.07;;;12.70;96.30;;;;;;4981237;28;20238;-77
2021/09/20 14:36:51;;;;;;;4.63;3.67;;;12.70;96.30;;;;;;4979338;28;20461;-77
2021/09/20 14:39:17;;;;;;;5.40;3.60;;;12.70;96.30;;;;;;4976738;28;20179;-79
2021/09/20 14:41:42;;;;;;;9.00;3.70;;;12.60;96.30;;;;;;4975962;28;20631;-78
2021/09/20 14:44:07;;;;;;;4.13;3.70;;;12.50;96.30;;;;;;4960859;28;20519;-78
2021/09/20 14:46:34;;;;;;;4.57;3.90;;;12.50;96.30;;;;;;4966761;28;20183;-78
2021/09/20 14:49:00;;;;;;;7.60;3.90;;;12.30;96.30;;;;;;4969411;28;20178;-78
2021/09/20 14:51:25;;;;;;;5.17;3.93;;;12.30;96.30;;;;;;4967112;28;20454;-79
2021/09/20 14:53:51;;;;;;;6.07;3.93;;;12.10;96.30;;;;;;4969666;28;20178;-79
2021/09/20 14:56:17;;;;;;;4.10;3.60;;;12.10;96.30;;;;;;4964225;28;20163;-78
2021/09/20 14:58:42;;;;;;;13.73;3.80;;;12.20;96.30;;;;;;4969064;28;20189;-78
2021/09/20 15:01:08;;;;;;;3.60;3.27;;;12.30;96.30;;;;;;4967135;28;20276;-77
2021/09/20 15:03:35;;;;;;;8.13;4.73;;;12.10;96.30;;;;;;4968310;28;20229;-77
2021/09/20 15:06:02;;;;;;;5.20;4.70;;;12.00;96.30;;;;;;4968158;28;20525;-77
2021/09/20 15:08:28;;;;;;;6.37;5.10;;;12.00;96.30;;;;;;4967362;28;20446;-77
2021/09/20 15:10:54;;;;;;;7.80;7.00;;;11.80;96.30;;;;;;4969543;28;20445;-78
2021/09/20 15:13:19;;;;;;;12.30;10.53;;;11.70;96.30;;;;;;4972464;28;20437;-78
2021/09/20 15:15:46;;;;;;;7.83;6.80;;;11.60;96.30;;;;;;4968807;28;20253;-78
2021/09/20 15:18:13;;;;;;;10.30;5.70;;;11.60;96.30;;;;;;4970755;28;20187;-77
2021/09/20 15:20:39;;;;;;;8.93;5.30;;;11.60;96.30;;;;;;4965768;28;21029;-76
2021/09/20 15:23:04;;;;;;;6.50;4.90;;;11.60;96.30;;;;;;4971987;28;20517;-76
2021/09/20 15:25:30;;;;;;;16.47;5.50;;;11.50;96.30;;;;;;4965752;28;20613;-80
2021/09/20 15:27:56;;;;;;;6.40;5.80;;;11.40;96.30;;;;;;4973454;28;20178;-78
2021/09/20 15:30:22;;;;;;;6.33;5.40;;;11.40;96.30;;;;;;4967032;28;20186;-78
2021/09/20 15:32:48;;;;;;;8.87;6.37;;;11.40;96.30;;;;;;4962341;28;20422;-77
2021/09/20 15:35:14;;;;;;;9.37;7.03;;;11.30;96.30;;;;;;4966270;28;20186;-77
2021/09/20 15:37:41;;;;;;;8.50;6.93;;;11.20;96.30;;;;;;4959271;28;20179;-76
2021/09/20 15:40:09;;;;;;;9.50;6.37;;;11.20;96.30;;;;;;4956101;29;20429;-77
2021/09/20 15:42:43;;;;;;;10.50;6.67;;;11.10;96.30;;;;;;4956188;29;20543;-78
2021/09/20 15:45:08;;;;;;;7.63;6.60;;;11.10;96.30;;;;;;4957159;28;20398;-77
2021/09/20 15:47:34;;;;;;;12.37;7.20;;;11.00;96.30;;;;;;4955547;29;20410;-76
2021/09/20 15:49:59;;;;;;;8.50;6.63;;;11.00;96.30;;;;;;4956991;29;20178;-77
2021/09/20 15:52:25;;;;;;;7.00;6.37;;;11.00;96.30;;;;;;4955738;29;20293;-77
2021/09/20 15:54:50;;;;;;;8.50;6.10;;;11.00;96.30;;;;;;4965407;28;20186;-76
2021/09/20 15:57:17;;;;;;;7.47;6.67;;;10.90;96.30;;;;;;4975975;28;20178;-77
2021/09/20 15:59:42;;;;;;;8.10;7.30;;;10.80;96.30;;;;;;4975591;28;20828;-77
2021/09/20 16:02:08;;;;;;;15.00;10.47;;;10.80;96.30;;;;;;4957318;28;20471;-77
2021/09/20 16:04:34;;;;;;;9.30;7.10;;;10.70;96.30;;;;;;4954253;28;20167;-77
2021/09/20 16:06:59;;;;;;;8.37;6.97;;;10.60;96.30;;;;;;4965354;28;20185;-79
2021/09/20 16:09:25;;;;;;;11.80;7.23;;;10.70;96.30;;;;;;4975077;28;20184;-76
2021/09/20 16:11:51;;;;;;;9.57;7.00;;;10.70;96.30;;;;;;4966031;28;20206;-76
2021/09/20 16:14:17;;;;;;;10.00;8.07;;;10.60;96.30;;;;;;4955708;28;20206;-77
2021/09/20 16:16:43;;;;;;;9.63;6.87;;;10.60;96.30;;;;;;4955148;28;20410;-77
2021/09/20 16:19:08;;;;;;;8.03;7.30;;;10.60;96.30;;;;;;4955191;28;20422;-78
2021/09/20 16:21:34;;;;;;;7.97;7.17;;;10.60;96.30;;;;;;4954630;28;20207;-78
2021/09/20 16:24:00;;;;;;;8.40;7.40;;;10.50;96.30;;;;;;4956299;28;20221;-78
2021/09/20 16:26:26;;;;;;;7.60;6.77;;;10.50;96.30;;;;;;4956668;29;20790;-78
2021/09/20 16:28:52;;;;;;;7.40;6.53;;;10.50;96.30;;;;;;4955078;29;20415;-80
2021/09/20 17:23:17;;;;;;;7.40;6.70;;;9.90;96.30;;;;;;4996063;28;20480;-79
2021/09/20 17:25:43;;;;;;;9.33;7.77;;;9.90;96.30;;;;;;4997588;28;20428;-78
2021/09/20 17:28:10;;;;;;;8.93;7.90;;;9.90;96.30;;;;;;4989926;28;20445;-80
2021/09/20 17:30:36;;;;;;;8.60;7.07;;;9.80;96.30;;;;;;4980928;28;20952;-80
2021/09/20 17:33:03;;;;;;;7.97;7.17;;;9.80;96.30;;;;;;4964503;28;20436;-80
2021/09/20 17:35:29;;;;;;;7.80;7.00;;;9.80;96.30;;;;;;4969478;28;20425;-79
2021/09/20 17:37:58;;;;;;;11.20;7.80;;;9.80;96.30;;;;;;4993069;28;20429;-79
2021/09/20 17:40:26;;;;;;;10.77;8.10;;;9.80;96.30;;;;;;4977163;28;20417;-79
2021/09/20 17:42:52;;;;;;;10.37;7.67;;;9.80;96.30;;;;;;4969068;28;20466;-79
2021/09/20 17:45:18;;;;;;;9.83;8.43;;;9.80;96.30;;;;;;4991801;28;20986;-79
2021/09/20 17:47:44;;;;;;;8.27;7.50;;;9.70;96.30;;;;;;4976824;28;20630;-79
2021/09/20 17:50:11;;;;;;;9.30;8.40;;;9.70;96.30;;;;;;4976643;28;20186;-79
2021/09/20 17:52:39;;;;;;;16.10;7.57;;;9.70;96.30;;;;;;4975801;28;20429;-79
2021/09/20 17:55:05;;;;;;;9.73;7.80;;;9.60;96.30;;;;;;4976610;28;20429;-79
2021/09/20 17:57:31;;;;;;;8.97;8.03;;;9.60;96.30;;;;;;4976658;28;20414;-79